createdAt,value
2022-12-16T00:00:10.315Z,153.47
2022-12-16T00:03:01.967Z,156.40
2022-12-16T00:05:29.784Z,155.53
2022-12-16T00:07:57.740Z,162.23
2022-12-16T00:10:25.526Z,146.40
2022-12-16T00:12:53.708Z,153.67
2022-12-16T00:15:22.760Z,159.57
2022-12-16T00:17:50.606Z,159.20
2022-12-16T00:20:22.086Z,149.20
2022-12-16T00:22:50.071Z,158.27
2022-12-16T00:25:20.048Z,141.63
2022-12-16T00:27:48.339Z,155.43
2022-12-16T00:30:15.792Z,160.27
2022-12-16T00:32:43.674Z,157.70
2022-12-16T00:35:10.995Z,155.77
2022-12-16T00:37:38.612Z,162.63
2022-12-16T00:40:06.799Z,156.43
2022-12-16T00:42:35.181Z,162.20
2022-12-16T00:45:03.178Z,172.40
2022-12-16T00:47:31.561Z,165.80
2022-12-16T00:49:59.245Z,181.07
2022-12-16T00:52:26.936Z,174.43
2022-12-16T00:54:54.660Z,159.67
2022-12-16T00:57:23.242Z,182.97
2022-12-16T00:59:51.143Z,181.43
2022-12-16T01:02:19.316Z,176.37
2022-12-16T01:04:47.392Z,175.27
2022-12-16T01:07:15.699Z,175.60
2022-12-16T01:09:44.318Z,172.63
2022-12-16T01:12:12.402Z,180.30
2022-12-16T01:14:40.112Z,184.77
2022-12-16T01:17:08.531Z,176.10
2022-12-16T01:19:36.213Z,187.00
2022-12-16T01:22:04.878Z,175.27
2022-12-16T01:24:32.660Z,179.33
2022-12-16T01:27:00.586Z,173.13
2022-12-16T01:29:28.232Z,177.20
2022-12-16T01:31:56.073Z,164.83
2022-12-16T01:34:26.630Z,175.93
2022-12-16T01:36:58.393Z,177.07
2022-12-16T01:39:27.754Z,166.90
2022-12-16T01:41:55.751Z,184.33
2022-12-16T01:44:25.804Z,171.67
2022-12-16T01:47:04.516Z,168.00
2022-12-16T01:49:39.584Z,157.23
2022-12-16T01:52:12.592Z,161.33
2022-12-16T01:54:49.155Z,162.67
2022-12-16T01:57:26.618Z,153.23
2022-12-16T01:59:55.966Z,154.13
2022-12-16T02:02:24.342Z,152.90
2022-12-16T02:05:11.087Z,165.50
2022-12-16T02:07:38.940Z,163.83
2022-12-16T02:10:06.803Z,163.90
2022-12-16T02:13:03.370Z,165.73
2022-12-16T02:15:31.048Z,161.47
2022-12-16T02:18:07.340Z,158.03
2022-12-16T02:20:35.192Z,158.07
2022-12-16T02:23:32.674Z,160.17
2022-12-16T02:26:37.184Z,160.80
2022-12-16T02:29:35.644Z,163.20
2022-12-16T02:32:22.781Z,152.83
2022-12-16T02:35:08.975Z,149.20
2022-12-16T02:37:51.247Z,156.20
2022-12-16T02:40:33.228Z,150.30
2022-12-16T02:43:17.843Z,151.30
2022-12-16T02:45:46.805Z,142.17
2022-12-16T02:48:14.568Z,156.63
2022-12-16T02:50:53.352Z,154.17
2022-12-16T02:53:21.987Z,153.07
2022-12-16T02:56:19.397Z,160.77
2022-12-16T02:59:11.669Z,163.83
2022-12-16T03:02:12.764Z,167.17
2022-12-16T03:05:08.350Z,162.07
2022-12-16T03:07:40.283Z,161.80
2022-12-16T03:10:11.931Z,164.20
2022-12-16T03:12:42.741Z,161.17
2022-12-16T03:15:11.989Z,161.30
2022-12-16T03:17:40.373Z,158.03
2022-12-16T03:20:12.813Z,157.93
2022-12-16T03:22:44.900Z,171.00
2022-12-16T03:25:12.781Z,173.83
2022-12-16T03:28:14.455Z,176.83
2022-12-16T03:30:50.306Z,167.73
2022-12-16T03:33:42.301Z,171.80
2022-12-16T03:36:22.593Z,168.70
2022-12-16T03:38:52.086Z,158.17
2022-12-16T03:41:22.344Z,166.87
2022-12-16T03:43:50.782Z,164.57
2022-12-16T03:46:19.400Z,159.20
2022-12-16T03:48:49.633Z,148.03
2022-12-16T03:51:17.909Z,151.90
2022-12-16T03:53:46.974Z,152.30
2022-12-16T03:56:15.153Z,146.20
2022-12-16T03:58:43.563Z,151.23
2022-12-16T04:01:11.670Z,153.60
2022-12-16T04:03:40.087Z,153.10
2022-12-16T04:06:08.400Z,149.77
2022-12-16T04:08:36.777Z,144.13
2022-12-16T04:11:23.026Z,154.73
2022-12-16T04:14:09.944Z,159.07
2022-12-16T04:16:56.446Z,150.93
2022-12-16T04:19:45.987Z,149.17
2022-12-16T04:22:41.503Z,150.10
2022-12-16T04:25:16.940Z,147.63
2022-12-16T04:27:47.597Z,151.63
2022-12-16T04:30:21.153Z,164.93
2022-12-16T04:33:15.870Z,140.63
2022-12-16T04:36:02.347Z,141.40
2022-12-16T04:38:48.844Z,148.27
2022-12-16T04:41:35.427Z,158.93
2022-12-16T04:44:22.228Z,149.93
2022-12-16T04:47:09.190Z,165.20
2022-12-16T04:49:55.449Z,163.57
2022-12-16T04:52:41.927Z,175.87
2022-12-16T04:55:28.761Z,174.93
2022-12-16T04:58:17.410Z,167.17
2022-12-16T05:01:04.641Z,160.90
2022-12-16T05:03:51.679Z,164.87
2022-12-16T05:06:38.626Z,160.57
2022-12-16T05:09:25.866Z,155.70
2022-12-16T05:12:12.413Z,160.43
2022-12-16T05:14:58.977Z,154.17
2022-12-16T05:17:45.384Z,156.57
2022-12-16T05:20:32.079Z,161.03
2022-12-16T05:23:18.568Z,164.53
2022-12-16T05:26:05.001Z,165.90
2022-12-16T05:28:51.365Z,162.50
2022-12-16T05:31:38.054Z,161.73
2022-12-16T05:34:24.179Z,165.30
2022-12-16T05:37:10.940Z,166.70
2022-12-16T05:39:57.550Z,161.40
2022-12-16T05:42:44.296Z,159.50
2022-12-16T05:45:30.504Z,134.70
2022-12-16T05:48:17.229Z,163.00
2022-12-16T05:51:23.294Z,164.40
2022-12-16T05:54:09.362Z,168.23
2022-12-16T05:56:55.416Z,156.77
2022-12-16T05:59:42.438Z,160.63
2022-12-16T06:02:28.709Z,160.20
2022-12-16T06:05:15.536Z,165.87
2022-12-16T06:08:02.021Z,168.77
2022-12-16T06:10:48.763Z,165.30
2022-12-16T06:13:35.120Z,174.67
2022-12-16T06:16:38.633Z,173.43
2022-12-16T06:19:24.852Z,174.37
2022-12-16T06:22:12.048Z,249.80
2022-12-16T06:24:58.995Z,247.17
2022-12-16T06:27:45.485Z,200.37
2022-12-16T06:30:31.793Z,244.30
2022-12-16T06:33:18.532Z,202.17
2022-12-16T06:36:04.856Z,181.87
2022-12-16T06:38:51.282Z,208.07
2022-12-16T06:41:37.341Z,243.17
2022-12-16T06:44:23.853Z,255.70
2022-12-16T06:47:10.117Z,290.17
2022-12-16T06:50:01.326Z,357.83
2022-12-16T06:52:47.476Z,368.73
2022-12-16T06:55:33.760Z,411.80
2022-12-16T06:58:20.243Z,447.10
2022-12-16T07:01:06.898Z,488.57
2022-12-16T07:03:53.084Z,496.37
2022-12-16T07:06:39.741Z,489.50
2022-12-16T07:09:25.680Z,491.07
2022-12-16T07:12:12.117Z,522.73
2022-12-16T07:14:58.383Z,486.33
2022-12-16T10:24:12.740Z,261.03
2022-12-16T10:26:59.688Z,291.23
2022-12-16T10:30:09.027Z,209.47
2022-12-16T10:33:09.617Z,251.63
2022-12-16T10:35:56.702Z,286.03
2022-12-16T10:38:59.750Z,616.47
2022-12-16T10:41:51.534Z,696.80
2022-12-16T10:45:12.243Z,922.17
2022-12-16T10:47:58.726Z,437.53
2022-12-16T10:50:44.817Z,450.17
2022-12-16T10:53:35.052Z,384.30
2022-12-16T10:57:08.709Z,458.27
2022-12-16T10:59:59.910Z,198.97
2022-12-16T11:02:47.612Z,476.63
2022-12-16T11:05:52.254Z,637.03
2022-12-16T11:08:46.977Z,183.97
2022-12-16T11:11:40.823Z,319.00
2022-12-16T11:14:42.100Z,193.63
2022-12-16T11:17:43.294Z,238.53
2022-12-16T11:20:40.085Z,194.87
2022-12-16T11:23:43.300Z,183.60
2022-12-16T11:26:36.729Z,202.60
2022-12-16T11:29:37.264Z,230.20
2022-12-16T11:32:45.003Z,220.67
2022-12-16T11:35:34.378Z,239.43
2022-12-16T11:38:24.236Z,202.97
2022-12-16T11:41:34.548Z,254.10
2022-12-16T11:44:24.091Z,290.57
2022-12-16T11:47:10.653Z,319.27
2022-12-16T11:49:56.867Z,235.37
2022-12-16T11:52:42.576Z,214.50
2022-12-16T11:59:07.339Z,285.03
2022-12-16T12:02:01.625Z,266.50
2022-12-16T12:04:48.417Z,193.53
2022-12-16T12:07:45.850Z,542.07
2022-12-16T12:11:09.127Z,197.43
2022-12-16T12:14:28.034Z,248.60
2022-12-16T12:17:27.395Z,216.80
2022-12-16T12:20:22.004Z,199.03
2022-12-16T12:23:07.799Z,241.83
2022-12-16T12:25:55.277Z,225.00
2022-12-16T12:28:57.095Z,206.40
2022-12-16T12:32:04.982Z,191.93
2022-12-16T12:35:01.887Z,285.63
2022-12-16T12:37:55.325Z,216.67
2022-12-16T12:41:20.051Z,227.63
2022-12-16T12:44:48.277Z,229.43
2022-12-16T12:47:36.245Z,219.57
2022-12-16T12:50:24.422Z,210.73
2022-12-16T12:53:41.210Z,215.70
2022-12-16T12:56:33.461Z,318.43
2022-12-16T13:00:04.120Z,252.47
2022-12-16T13:03:01.674Z,223.03
2022-12-16T13:05:52.531Z,226.83
2022-12-16T13:09:14.703Z,254.03
2022-12-16T13:12:25.827Z,260.37
2022-12-16T13:15:14.186Z,200.90
2022-12-16T13:18:23.630Z,352.20
2022-12-16T13:21:12.922Z,211.13
2022-12-16T13:24:01.875Z,359.23
2022-12-16T13:26:51.186Z,223.23
2022-12-16T13:29:44.362Z,206.83
2022-12-16T13:32:43.380Z,182.80
2022-12-16T13:35:29.626Z,209.47
2022-12-16T13:38:35.979Z,224.30
2022-12-16T13:41:24.571Z,216.53
2022-12-16T13:44:17.471Z,223.67
2022-12-16T13:47:05.874Z,272.27
2022-12-16T13:49:55.284Z,191.50
2022-12-16T13:52:56.726Z,190.43
2022-12-16T13:55:51.488Z,198.27
2022-12-16T13:58:49.412Z,191.73
2022-12-16T14:01:41.737Z,187.37
2022-12-16T14:04:38.796Z,253.93
2022-12-16T14:07:25.231Z,209.23
2022-12-16T14:10:12.842Z,190.73
2022-12-16T14:13:07.233Z,216.10
2022-12-16T14:16:13.169Z,386.53
2022-12-16T14:19:16.510Z,289.97
2022-12-16T14:22:31.775Z,275.60
2022-12-16T14:25:36.513Z,220.63
2022-12-16T14:28:37.610Z,225.37
2022-12-16T14:32:00.012Z,470.57
2022-12-16T14:34:51.430Z,257.37
2022-12-16T14:37:54.593Z,284.33
2022-12-16T14:40:49.647Z,286.80
2022-12-16T14:43:42.252Z,323.73
2022-12-16T14:46:49.139Z,328.70
2022-12-16T14:49:42.976Z,294.50
2022-12-16T14:52:41.104Z,234.53
2022-12-16T14:55:32.235Z,337.57
2022-12-16T14:58:23.714Z,271.90
2022-12-16T15:01:15.515Z,217.80
2022-12-16T15:04:09.223Z,221.00
2022-12-16T17:22:46.091Z,192.90
2022-12-16T17:25:36.013Z,217.43
2022-12-16T17:28:22.733Z,210.53
2022-12-16T17:31:09.231Z,454.63
2022-12-16T17:33:55.563Z,316.83
2022-12-16T17:36:42.544Z,367.40
2022-12-16T17:39:29.414Z,325.97
2022-12-16T17:42:16.343Z,240.77
2022-12-16T17:45:02.535Z,204.47
2022-12-16T17:47:49.547Z,199.20
2022-12-16T17:50:36.208Z,215.47
2022-12-16T17:53:23.426Z,201.53
2022-12-16T17:56:09.844Z,209.07
2022-12-16T17:58:57.504Z,200.23
2022-12-16T18:01:44.458Z,203.10
2022-12-16T18:04:31.193Z,208.20
2022-12-16T18:07:17.835Z,203.77
2022-12-16T18:10:04.626Z,223.20
2022-12-16T18:12:51.649Z,206.90
2022-12-16T18:15:38.272Z,191.60
2022-12-16T18:18:24.367Z,201.60
2022-12-16T18:21:10.709Z,201.63
2022-12-16T18:23:56.820Z,337.83
2022-12-16T18:26:43.549Z,266.40
2022-12-16T18:29:29.639Z,214.50
2022-12-16T18:32:16.284Z,439.27
2022-12-16T18:35:02.491Z,258.17
2022-12-16T18:37:49.098Z,203.27
2022-12-16T18:40:38.937Z,239.63
2022-12-16T18:43:25.860Z,217.60
2022-12-16T18:46:32.535Z,192.37
2022-12-16T18:49:19.191Z,179.30
2022-12-16T18:52:05.991Z,192.87
2022-12-16T18:54:52.640Z,187.07
2022-12-16T18:57:41.411Z,240.10
2022-12-16T19:00:28.290Z,299.80
2022-12-16T19:03:14.800Z,216.70
2022-12-16T19:06:01.305Z,456.90
2022-12-16T19:08:48.679Z,307.20
2022-12-16T19:11:35.484Z,232.90
2022-12-16T19:14:21.652Z,225.43
2022-12-16T19:17:08.466Z,211.00
2022-12-16T19:19:54.689Z,218.57
2022-12-16T19:22:43.474Z,230.93
2022-12-16T19:25:50.092Z,243.13
2022-12-16T19:28:37.290Z,208.73
2022-12-16T19:31:28.132Z,199.97
2022-12-16T19:34:18.323Z,204.97
2022-12-16T19:37:04.602Z,223.20
2022-12-16T19:39:52.302Z,215.80
2022-12-16T19:42:38.877Z,193.60
2022-12-16T19:45:26.015Z,186.97
2022-12-16T19:48:19.819Z,201.37
2022-12-16T19:51:06.403Z,197.80
2022-12-16T19:53:52.703Z,204.20
2022-12-16T19:56:43.126Z,194.60
2022-12-16T19:59:29.474Z,183.77
2022-12-16T20:02:16.443Z,182.77
2022-12-16T20:05:02.850Z,173.10
2022-12-16T20:07:49.898Z,212.00
2022-12-16T20:10:36.668Z,177.57
2022-12-16T20:13:30.490Z,160.93
2022-12-16T20:16:24.600Z,167.97
2022-12-16T20:19:11.535Z,177.53
2022-12-16T20:22:00.700Z,170.43
2022-12-16T20:24:51.822Z,166.10
2022-12-16T20:27:38.279Z,162.90
2022-12-16T20:30:25.232Z,184.73
2022-12-16T20:33:11.442Z,165.50
2022-12-16T20:35:58.325Z,156.47
2022-12-16T20:38:45.579Z,208.37
2022-12-16T20:41:32.715Z,165.83
2022-12-16T20:44:19.338Z,161.03
2022-12-16T20:47:06.811Z,166.67
2022-12-16T20:49:54.997Z,148.03
2022-12-16T20:52:43.135Z,161.30
2022-12-16T20:55:30.024Z,149.30
2022-12-16T20:58:17.534Z,150.73
2022-12-16T21:01:04.658Z,153.27
2022-12-16T21:03:56.805Z,157.23
2022-12-16T21:06:44.132Z,149.70
2022-12-16T21:09:32.519Z,145.73
2022-12-16T21:12:19.232Z,142.60
2022-12-16T21:15:07.393Z,124.30
2022-12-16T21:17:55.394Z,125.83
2022-12-16T21:20:44.233Z,109.17
2022-12-16T21:23:31.110Z,147.67
2022-12-16T21:26:18.497Z,120.20
2022-12-16T21:29:05.960Z,109.23
2022-12-16T21:31:53.522Z,111.67
2022-12-16T21:34:40.129Z,114.13
2022-12-16T21:37:31.463Z,112.60
2022-12-16T21:40:18.093Z,112.30
2022-12-16T21:43:04.810Z,110.53
2022-12-16T21:46:08.565Z,120.57
2022-12-16T21:48:56.168Z,113.77
2022-12-16T21:51:42.947Z,104.90
2022-12-16T21:54:29.607Z,123.77
2022-12-16T21:57:15.962Z,110.37
2022-12-16T22:00:02.743Z,110.83
2022-12-16T22:02:57.589Z,111.97
2022-12-16T22:05:44.302Z,119.57
2022-12-16T22:08:31.121Z,122.17
2022-12-16T22:11:17.825Z,111.83
2022-12-16T22:14:04.211Z,115.40
2022-12-16T22:16:51.114Z,113.63
2022-12-16T22:19:38.406Z,116.27
2022-12-16T22:22:24.976Z,124.70
2022-12-16T22:25:14.341Z,118.53
2022-12-16T22:28:01.113Z,106.17
2022-12-16T22:30:48.136Z,104.67
2022-12-16T22:33:34.866Z,137.03
2022-12-16T22:36:22.409Z,114.70
2022-12-16T22:39:09.214Z,122.00
2022-12-16T22:41:56.729Z,143.97
2022-12-16T22:44:43.475Z,116.77
2022-12-16T22:47:29.834Z,120.20
2022-12-16T22:50:16.578Z,120.87
2022-12-16T22:53:03.070Z,122.10
2022-12-16T22:55:49.699Z,117.53
2022-12-16T22:58:36.169Z,120.17
2022-12-16T23:01:26.105Z,111.87
2022-12-16T23:04:12.268Z,119.07
2022-12-16T23:07:00.314Z,121.53
2022-12-16T23:09:46.822Z,114.10
2022-12-16T23:12:34.038Z,111.83
2022-12-16T23:15:20.573Z,111.47
2022-12-16T23:18:06.901Z,200.90
2022-12-16T23:20:53.092Z,117.57
2022-12-16T23:23:43.496Z,118.13
2022-12-16T23:26:29.821Z,113.40
2022-12-16T23:29:16.788Z,97.83
2022-12-16T23:32:03.789Z,98.57
2022-12-16T23:34:51.254Z,106.37
2022-12-16T23:37:38.993Z,108.27
2022-12-16T23:40:26.054Z,115.50
2022-12-16T23:43:12.911Z,107.87
2022-12-16T23:45:59.809Z,104.10
2022-12-16T23:48:46.427Z,120.40
2022-12-16T23:51:33.035Z,115.80
2022-12-16T23:54:19.268Z,107.10
2022-12-16T23:57:06.024Z,97.17
2022-12-16T23:59:52.702Z,99.83
